createdAt,value
2023-01-22T00:00:39.709Z,96519.25
2023-01-22T00:03:06.081Z,96524.41
2023-01-22T00:05:32.660Z,96522.75
2023-01-22T00:07:59.008Z,96521.09
2023-01-22T00:10:25.595Z,96519.25
2023-01-22T00:12:51.953Z,96512.44
2023-01-22T00:15:18.366Z,96508.94
2023-01-22T00:17:44.704Z,96508.22
2023-01-22T00:20:12.563Z,96501.56
2023-01-22T00:22:38.901Z,96498.81
2023-01-22T00:25:05.777Z,96494.75
2023-01-22T00:27:32.149Z,96376.97
2023-01-22T00:29:58.554Z,96355.53
2023-01-22T00:32:24.941Z,96337.41
2023-01-22T00:34:52.603Z,96318.47
2023-01-22T00:37:20.292Z,96318.63
2023-01-22T00:39:46.784Z,96283.41
2023-01-22T00:42:13.242Z,96254.13
2023-01-22T00:44:39.604Z,96236.19
2023-01-22T00:47:06.181Z,96228.38
2023-01-22T00:49:32.523Z,96232.69
2023-01-22T00:51:58.903Z,96230.03
2023-01-22T00:54:25.296Z,96221.56
2023-01-22T00:56:51.702Z,96199.28
2023-01-22T00:59:18.216Z,96198.28
2023-01-22T01:01:44.821Z,96181.91
2023-01-22T01:04:11.242Z,96158.72
2023-01-22T01:06:37.602Z,96158.72
2023-01-22T01:09:05.262Z,96148.44
2023-01-22T01:11:31.758Z,96151.09
2023-01-22T01:13:58.356Z,96132.13
2023-01-22T01:16:32.137Z,96124.47
2023-01-22T01:19:03.544Z,96115.03
2023-01-22T01:21:30.188Z,96114.19
2023-01-22T01:23:57.050Z,96111.59
2023-01-22T01:26:23.492Z,96094.41
2023-01-22T01:28:52.606Z,96078.19
2023-01-22T01:31:19.992Z,96061.84
2023-01-22T01:33:46.869Z,96051.72
2023-01-22T01:36:35.520Z,96030.19
2023-01-22T01:39:06.640Z,96014.63
2023-01-22T01:41:32.983Z,96004.31
2023-01-22T01:44:22.116Z,95959.78
2023-01-22T01:46:53.447Z,95946.00
2023-01-22T01:49:30.946Z,95933.13
2023-01-22T01:52:00.132Z,95896.13
2023-01-22T01:54:27.204Z,95860.06
2023-01-22T01:56:56.164Z,95842.97
2023-01-22T01:59:22.518Z,95824.84
2023-01-22T02:01:52.960Z,95819.69
2023-01-22T02:04:19.719Z,95808.66
2023-01-22T02:06:46.070Z,94884.81
2023-01-22T02:09:12.762Z,94873.69
2023-01-22T02:11:39.564Z,94848.75
2023-01-22T02:14:08.128Z,94830.59
2023-01-22T02:16:34.785Z,94802.13
2023-01-22T02:19:01.228Z,94776.53
2023-01-22T02:21:33.599Z,94740.31
2023-01-22T02:24:00.188Z,94745.47
2023-01-22T02:26:26.614Z,94712.94
2023-01-22T02:28:52.980Z,94682.56
2023-01-22T02:31:19.475Z,94663.88
2023-01-22T02:33:45.983Z,94628.66
2023-01-22T02:36:12.417Z,94598.81
2023-01-22T02:38:38.828Z,94564.38
2023-01-22T02:41:05.223Z,94517.47
2023-01-22T02:43:31.587Z,94465.16
2023-01-22T02:45:58.245Z,94426.66
2023-01-22T02:48:24.622Z,94388.03
2023-01-22T02:50:51.064Z,94339.13
2023-01-22T02:53:17.706Z,94313.38
2023-01-22T02:55:46.159Z,94267.03
2023-01-22T02:58:12.629Z,94237.09
2023-01-22T03:00:39.206Z,94202.00
2023-01-22T03:03:07.749Z,94171.09
2023-01-22T03:05:34.809Z,94142.09
2023-01-22T03:08:01.689Z,94104.16
2023-01-22T03:10:28.078Z,94087.06
2023-01-22T03:13:13.398Z,94060.66
2023-01-22T03:15:58.106Z,94032.34
2023-01-22T03:18:43.463Z,94004.69
2023-01-22T03:21:16.857Z,93978.16
2023-01-22T03:23:44.747Z,93953.19
2023-01-22T03:26:11.091Z,93934.50
2023-01-22T03:28:37.503Z,93914.88
2023-01-22T03:31:04.484Z,93896.88
2023-01-22T03:33:30.901Z,93864.03
2023-01-22T03:36:08.210Z,93815.28
2023-01-22T03:38:34.667Z,93785.19
2023-01-22T03:41:05.447Z,93770.03
2023-01-22T03:43:32.555Z,93757.84
2023-01-22T03:46:11.897Z,93737.25
2023-01-22T03:48:38.990Z,93722.78
2023-01-22T03:51:13.319Z,93720.19
2023-01-22T03:53:40.259Z,93705.41
2023-01-22T03:56:08.506Z,93694.94
2023-01-22T03:58:34.936Z,93678.19
2023-01-22T04:01:02.908Z,93667.75
2023-01-22T04:03:29.434Z,93611.13
2023-01-22T04:05:55.866Z,93466.97
2023-01-22T04:08:22.487Z,93452.16
2023-01-22T04:10:48.894Z,93439.94
2023-01-22T04:13:15.281Z,93434.78
2023-01-22T04:15:44.227Z,93417.72
2023-01-22T04:18:10.971Z,93403.91
2023-01-22T04:20:37.905Z,93403.91
2023-01-22T04:23:04.610Z,93369.47
2023-01-22T04:25:30.970Z,93357.22
2023-01-22T04:27:57.312Z,93341.47
2023-01-22T04:30:24.016Z,93322.47
2023-01-22T04:32:50.407Z,93327.63
2023-01-22T04:35:16.870Z,93316.03
2023-01-22T04:37:43.449Z,93324.72
2023-01-22T04:40:10.336Z,93314.44
2023-01-22T04:42:36.695Z,93323.75
2023-01-22T04:45:03.423Z,93327.31
2023-01-22T04:47:29.790Z,93323.91
2023-01-22T04:49:56.132Z,93314.44
2023-01-22T04:52:22.492Z,93320.41
2023-01-22T04:54:49.570Z,93314.44
2023-01-22T04:57:15.909Z,93318.78
2023-01-22T04:59:42.518Z,93316.03
2023-01-22T05:02:08.926Z,93322.31
2023-01-22T05:04:35.350Z,93328.28
2023-01-22T05:07:01.933Z,93318.97
2023-01-22T05:09:28.291Z,93324.41
2023-01-22T05:11:54.734Z,93332.13
2023-01-22T05:14:21.083Z,93339.03
2023-01-22T05:16:49.016Z,93344.84
2023-01-22T05:19:15.906Z,93343.25
2023-01-22T05:21:42.497Z,93344.03
2023-01-22T05:24:09.424Z,93357.88
2023-01-22T05:26:35.767Z,93364.63
2023-01-22T05:29:02.191Z,93363.66
2023-01-22T05:31:28.631Z,93362.06
2023-01-22T05:33:55.000Z,93363.03
2023-01-22T05:36:22.013Z,93358.69
2023-01-22T05:38:48.389Z,93357.06
2023-01-22T05:41:14.768Z,93359.47
2023-01-22T05:43:41.335Z,93356.91
2023-01-22T05:46:07.708Z,93353.56
2023-01-22T05:48:34.066Z,93350.97
2023-01-22T05:51:04.959Z,93349.19
2023-01-22T05:53:31.339Z,93346.63
2023-01-22T05:56:02.748Z,93352.41
2023-01-22T05:58:32.440Z,93352.72
2023-01-22T06:00:58.925Z,93352.41
2023-01-22T06:03:25.361Z,93347.28
2023-01-22T06:06:02.012Z,93350.78
2023-01-22T06:08:28.653Z,93351.59
2023-01-22T06:11:04.117Z,93355.94
2023-01-22T06:13:30.857Z,93354.03
2023-01-22T06:15:57.618Z,93355.00
2023-01-22T06:18:24.454Z,93359.47
2023-01-22T06:20:51.060Z,93359.47
2023-01-22T06:23:17.445Z,93367.22
2023-01-22T06:25:43.855Z,93376.88
2023-01-22T06:28:10.518Z,93371.72
2023-01-22T06:30:37.422Z,93366.56
2023-01-22T06:33:04.023Z,93362.22
2023-01-22T06:35:30.369Z,93359.47
2023-01-22T06:37:56.703Z,93356.59
2023-01-22T06:40:23.283Z,93350.47
2023-01-22T06:42:49.637Z,93364.63
2023-01-22T06:45:16.348Z,93361.91
2023-01-22T06:47:45.909Z,93359.47
2023-01-22T06:50:12.928Z,93360.31
2023-01-22T06:52:39.384Z,93360.59
2023-01-22T06:55:06.002Z,93364.63
2023-01-22T06:57:32.388Z,93369.78
2023-01-22T06:59:58.750Z,93367.88
2023-01-22T07:02:25.132Z,93371.38
2023-01-22T07:04:51.748Z,93374.94
2023-01-22T07:07:18.160Z,93363.34
2023-01-22T07:09:44.718Z,93382.34
2023-01-22T07:12:11.110Z,93391.34
2023-01-22T07:14:37.953Z,93376.22
2023-01-22T07:17:04.574Z,93378.16
2023-01-22T07:19:30.959Z,93385.88
2023-01-22T07:21:57.313Z,93381.38
2023-01-22T07:24:23.932Z,93377.97
2023-01-22T07:26:50.316Z,93380.41
2023-01-22T07:29:16.938Z,93377.81
2023-01-22T07:31:43.360Z,93377.81
2023-01-22T07:34:10.917Z,93398.75
2023-01-22T07:36:37.267Z,93392.47
2023-01-22T07:39:05.497Z,93385.69
2023-01-22T07:41:32.422Z,93371.22
2023-01-22T07:44:00.378Z,93379.41
2023-01-22T07:46:27.594Z,93361.41
2023-01-22T07:48:54.235Z,93359.50
2023-01-22T07:51:20.721Z,93340.19
2023-01-22T07:53:47.308Z,93364.28
2023-01-22T07:56:13.654Z,93361.09
2023-01-22T07:58:41.146Z,93359.16
2023-01-22T08:01:07.570Z,93346.59
2023-01-22T08:03:34.306Z,93330.81
2023-01-22T08:06:00.807Z,93343.38
2023-01-22T08:08:27.253Z,93338.38
2023-01-22T08:10:53.610Z,93322.63
2023-01-22T08:13:20.000Z,93332.09
2023-01-22T08:15:46.346Z,93325.00
2023-01-22T08:18:12.940Z,93310.81
2023-01-22T08:20:39.306Z,93318.25
2023-01-22T08:23:05.684Z,93322.41
2023-01-22T08:25:32.051Z,93334.34
2023-01-22T08:28:01.934Z,93326.28
2023-01-22T08:30:28.404Z,93330.66
2023-01-22T08:32:55.301Z,93342.88
2023-01-22T08:35:21.801Z,93334.50
2023-01-22T08:37:48.386Z,93330.13
2023-01-22T08:40:15.214Z,93330.59
2023-01-22T08:42:41.679Z,93358.81
2023-01-22T08:45:08.459Z,93361.03
2023-01-22T08:47:34.859Z,93350.88
2023-01-22T08:50:04.142Z,93361.69
2023-01-22T08:52:30.539Z,93370.72
2023-01-22T08:54:56.980Z,93364.25
2023-01-22T08:57:23.401Z,93370.69
2023-01-22T09:00:00.664Z,93391.94
2023-01-22T09:02:27.955Z,93390.00
2023-01-22T09:04:54.361Z,93417.09
2023-01-22T09:07:20.750Z,93420.28
2023-01-22T09:09:47.111Z,93423.69
2023-01-22T09:12:13.478Z,93441.06
2023-01-22T09:14:40.077Z,93445.44
2023-01-22T09:17:06.425Z,93469.91
2023-01-22T09:19:32.803Z,93460.53
2023-01-22T09:21:59.179Z,93458.28
2023-01-22T09:24:25.860Z,93471.00
2023-01-22T09:26:52.207Z,93481.16
2023-01-22T09:29:18.807Z,93510.63
2023-01-22T09:31:45.188Z,93514.97
2023-01-22T09:34:11.584Z,93525.94
2023-01-22T09:36:37.993Z,93551.03
2023-01-22T09:39:04.368Z,93559.44
2023-01-22T09:41:35.771Z,93569.41
2023-01-22T09:44:23.043Z,93585.53
2023-01-22T09:47:00.126Z,93607.41
2023-01-22T09:49:52.222Z,93641.88
2023-01-22T09:52:18.571Z,93671.19
2023-01-22T09:54:45.129Z,93684.72
2023-01-22T09:57:19.840Z,93712.25
2023-01-22T09:59:56.906Z,93724.34
2023-01-22T10:02:31.915Z,93739.81
2023-01-22T10:05:17.849Z,93768.78
2023-01-22T10:07:47.451Z,93790.03
2023-01-22T10:10:20.544Z,93805.19
2023-01-22T10:13:00.580Z,93808.09
2023-01-22T10:15:27.221Z,93808.09
2023-01-22T10:17:56.833Z,93845.31
2023-01-22T10:20:24.863Z,93853.19
2023-01-22T10:22:55.107Z,93865.09
2023-01-22T10:25:21.661Z,93862.38
2023-01-22T10:27:56.986Z,93864.47
2023-01-22T10:30:26.929Z,93877.00
2023-01-22T10:33:03.967Z,93870.44
2023-01-22T10:35:33.663Z,93876.44
2023-01-22T10:38:00.435Z,93884.31
2023-01-22T10:40:27.294Z,93898.94
2023-01-22T10:43:04.018Z,93925.00
2023-01-22T10:45:30.622Z,93942.69
2023-01-22T10:48:29.411Z,93930.84
2023-01-22T10:51:07.355Z,93921.72
2023-01-22T10:53:35.372Z,93946.94
2023-01-22T10:56:03.405Z,93950.19
2023-01-22T10:58:32.093Z,93971.13
2023-01-22T11:01:06.830Z,93961.00
2023-01-22T11:03:37.440Z,93993.34
2023-01-22T11:06:15.637Z,94002.03
2023-01-22T11:09:04.019Z,94013.97
2023-01-22T11:11:34.734Z,94023.75
2023-01-22T11:14:04.572Z,94026.19
2023-01-22T11:16:33.484Z,94017.22
2023-01-22T11:19:13.031Z,93994.72
2023-01-22T11:21:43.028Z,94025.75
2023-01-22T11:24:15.828Z,94006.00
2023-01-22T11:26:54.455Z,94021.41
2023-01-22T11:29:45.283Z,94042.16
2023-01-22T11:32:11.638Z,94060.06
2023-01-22T11:34:41.522Z,94056.53
2023-01-22T11:37:12.013Z,94083.13
2023-01-22T11:40:01.410Z,94075.53
2023-01-22T11:42:59.147Z,94085.19
2023-01-22T11:45:38.195Z,94103.50
2023-01-22T11:48:37.830Z,94104.84
2023-01-22T11:51:23.138Z,94102.63
2023-01-22T11:54:14.515Z,94117.59
2023-01-22T11:56:52.261Z,94081.78
2023-01-22T11:59:51.164Z,94117.00
2023-01-22T12:02:39.454Z,94130.84
2023-01-22T12:05:09.173Z,94149.03
2023-01-22T12:08:05.997Z,94139.75
2023-01-22T12:10:55.134Z,94163.25
2023-01-22T12:13:48.890Z,94180.63
2023-01-22T12:16:30.292Z,94180.72
2023-01-22T12:19:34.366Z,94205.47
2023-01-22T12:22:07.343Z,94218.34
2023-01-22T12:24:41.377Z,94222.53
2023-01-22T12:27:27.121Z,94219.25
2023-01-22T12:30:12.635Z,94213.94
2023-01-22T12:32:39.005Z,94228.72
2023-01-22T12:35:06.754Z,94221.00
2023-01-22T12:37:40.838Z,94232.00
2023-01-22T12:40:19.756Z,94244.19
2023-01-22T12:42:49.180Z,94260.63
2023-01-22T12:45:18.417Z,94277.34
2023-01-22T12:47:56.970Z,94266.44
2023-01-22T12:50:24.635Z,94262.34
2023-01-22T12:53:18.102Z,94279.75
2023-01-22T12:55:45.055Z,94277.53
2023-01-22T12:58:26.964Z,94324.13
2023-01-22T13:01:00.559Z,94321.28
2023-01-22T13:03:32.922Z,94334.81
2023-01-22T13:05:59.901Z,94340.81
2023-01-22T13:08:34.513Z,94361.00
2023-01-22T13:11:05.698Z,94368.72
2023-01-22T13:13:34.435Z,94391.28
2023-01-22T13:16:06.461Z,94416.22
2023-01-22T13:18:35.048Z,94433.09
2023-01-22T13:21:03.253Z,94458.31
2023-01-22T13:23:47.376Z,94472.03
2023-01-22T13:26:21.996Z,94481.84
2023-01-22T13:29:28.591Z,94458.59
2023-01-22T13:31:59.421Z,94488.47
2023-01-22T13:34:26.181Z,94490.91
2023-01-22T13:36:52.733Z,94484.66
2023-01-22T13:39:37.865Z,94497.56
2023-01-22T13:42:05.000Z,94506.22
2023-01-22T13:44:33.920Z,94519.69
2023-01-22T13:47:00.251Z,94512.06
2023-01-22T13:49:28.533Z,94521.03
2023-01-22T13:51:56.727Z,94545.19
2023-01-22T13:54:33.497Z,94539.75
2023-01-22T13:57:00.060Z,94559.31
2023-01-22T13:59:28.430Z,94564.47
2023-01-22T14:01:54.895Z,94575.72
2023-01-22T14:04:35.411Z,94583.47
2023-01-22T14:07:01.822Z,94570.97
2023-01-22T14:09:33.595Z,94593.50
2023-01-22T14:12:00.525Z,94593.50
2023-01-22T14:14:27.075Z,94591.59
2023-01-22T14:16:53.464Z,94611.28
2023-01-22T14:19:19.847Z,94625.66
2023-01-22T14:21:46.214Z,94616.03
2023-01-22T14:24:12.647Z,94606.25
2023-01-22T14:26:39.016Z,94627.97
2023-01-22T14:29:05.441Z,94629.75
2023-01-22T14:31:31.841Z,94626.06
2023-01-22T14:33:58.288Z,94631.50
2023-01-22T14:36:24.718Z,94638.00
2023-01-22T14:38:53.471Z,94641.13
2023-01-22T14:41:19.834Z,94635.28
2023-01-22T14:43:46.240Z,94635.16
2023-01-22T14:46:12.585Z,94627.28
2023-01-22T14:48:39.211Z,94634.19
2023-01-22T14:51:13.083Z,94633.41
2023-01-22T14:53:40.056Z,94624.84
2023-01-22T14:56:07.263Z,94612.50
2023-01-22T14:58:33.871Z,94608.97
2023-01-22T15:01:00.300Z,94602.19
2023-01-22T15:03:29.062Z,94619.81
2023-01-22T15:05:55.446Z,94629.59
2023-01-22T15:08:21.790Z,94622.81
2023-01-22T15:10:48.388Z,94622.00
2023-01-22T15:13:14.959Z,94605.56
2023-01-22T15:15:41.291Z,94597.81
2023-01-22T15:18:07.639Z,94595.38
2023-01-22T15:20:33.998Z,94587.53
2023-01-22T15:23:00.462Z,94575.59
2023-01-22T15:25:27.255Z,94571.25
2023-01-22T15:27:53.855Z,94580.75
2023-01-22T15:30:20.633Z,94562.56
2023-01-22T15:32:47.180Z,94556.06
2023-01-22T15:35:13.629Z,94568.53
2023-01-22T15:37:40.050Z,94568.53
2023-01-22T15:40:07.540Z,94566.63
2023-01-22T15:42:35.613Z,94574.50
2023-01-22T15:45:03.497Z,94579.53
2023-01-22T15:47:29.883Z,94580.75
2023-01-22T15:49:56.279Z,94586.56
2023-01-22T15:52:22.684Z,94601.38
2023-01-22T15:54:51.170Z,94613.59
2023-01-22T15:57:17.578Z,94606.78
2023-01-22T15:59:44.242Z,94593.50
2023-01-22T16:02:10.879Z,94602.31
2023-01-22T16:04:37.551Z,94611.81
2023-01-22T16:07:04.020Z,94597.81
2023-01-22T16:09:30.392Z,94603.28
2023-01-22T16:11:57.358Z,94593.88
2023-01-22T16:14:23.700Z,94584.28
2023-01-22T16:16:50.604Z,94591.06
2023-01-22T16:19:17.206Z,94590.22
2023-01-22T16:21:45.023Z,94591.06
2023-01-22T16:24:11.424Z,94588.47
2023-01-22T16:26:37.871Z,94585.63
2023-01-22T16:29:04.915Z,94582.38
2023-01-22T16:31:33.349Z,94590.38
2023-01-22T16:34:01.719Z,94577.22
2023-01-22T16:36:29.462Z,94566.63
2023-01-22T16:38:55.895Z,94560.66
2023-01-22T16:41:25.484Z,94566.91
2023-01-22T16:44:02.112Z,94563.66
2023-01-22T16:46:30.116Z,94560.13
2023-01-22T16:49:01.019Z,94559.16
2023-01-22T16:51:28.145Z,94558.50
2023-01-22T16:53:54.869Z,94566.50
2023-01-22T16:56:21.241Z,94556.72
2023-01-22T16:58:47.620Z,94544.38
2023-01-22T17:01:14.587Z,94541.94
2023-01-22T17:03:41.368Z,94554.97
2023-01-22T17:06:10.685Z,94563.66
2023-01-22T17:08:37.061Z,94560.94
2023-01-22T17:11:05.936Z,94564.72
2023-01-22T17:13:32.341Z,94559.03
2023-01-22T17:15:58.956Z,94567.72
2023-01-22T17:18:25.457Z,94569.34
2023-01-22T17:21:01.841Z,94569.88
2023-01-22T17:23:28.642Z,94572.47
2023-01-22T17:25:55.085Z,94566.50
2023-01-22T17:28:24.335Z,94587.25
2023-01-22T17:30:51.070Z,94584.81
2023-01-22T17:33:20.653Z,94594.03
2023-01-22T17:35:47.010Z,94600.28
2023-01-22T17:38:13.434Z,94591.59
2023-01-22T17:40:39.789Z,94585.34
2023-01-22T17:43:06.173Z,94580.47
2023-01-22T17:45:32.556Z,94577.91
2023-01-22T17:47:59.925Z,94567.31
2023-01-22T17:50:26.300Z,94569.22
2023-01-22T17:52:52.885Z,94559.03
2023-01-22T17:55:19.393Z,94558.22
2023-01-22T17:57:45.858Z,94546.81
2023-01-22T18:00:12.932Z,94547.63
2023-01-22T18:02:39.331Z,94546.28
2023-01-22T18:05:06.548Z,94545.47
2023-01-22T18:07:35.506Z,94528.22
2023-01-22T18:10:01.881Z,94525.66
2023-01-22T18:12:28.296Z,94502.44
2023-01-22T18:14:54.699Z,94484.13
2023-01-22T18:17:21.112Z,94495.81
2023-01-22T18:19:47.491Z,94489.84
2023-01-22T18:22:15.303Z,94481.44
2023-01-22T18:24:41.683Z,94482.66
2023-01-22T18:27:08.079Z,94464.34
2023-01-22T18:29:34.828Z,94454.03
2023-01-22T18:32:01.518Z,94438.56
2023-01-22T18:34:27.932Z,94426.34
2023-01-22T18:36:54.328Z,94421.50
2023-01-22T18:39:21.340Z,94416.72
2023-01-22T18:41:47.760Z,94392.44
2023-01-22T18:44:15.183Z,94384.06
2023-01-22T18:46:44.990Z,94365.88
2023-01-22T18:49:12.671Z,94354.47
2023-01-22T18:51:41.828Z,94343.34
2023-01-22T18:54:08.661Z,94335.59
2023-01-22T18:56:36.707Z,94334.78
2023-01-22T18:59:03.135Z,94314.84
2023-01-22T19:01:31.228Z,94295.03
2023-01-22T19:04:03.193Z,94296.13
2023-01-22T19:06:31.289Z,94296.44
2023-01-22T19:09:05.032Z,94301.59
2023-01-22T19:11:33.243Z,94289.66
2023-01-22T19:14:00.179Z,94283.53
2023-01-22T19:16:27.137Z,94257.63
2023-01-22T19:18:58.370Z,94240.75
2023-01-22T19:21:25.206Z,94241.06
2023-01-22T19:23:54.339Z,94205.50
2023-01-22T19:26:28.072Z,94204.69
2023-01-22T19:28:56.003Z,94196.03
2023-01-22T19:31:25.206Z,94170.25
2023-01-22T19:33:52.548Z,94186.00
2023-01-22T19:36:19.305Z,94187.22
2023-01-22T19:38:45.700Z,94174.84
2023-01-22T19:41:12.262Z,94174.34
2023-01-22T19:43:38.684Z,94153.44
2023-01-22T19:46:07.278Z,94143.13
2023-01-22T19:48:34.351Z,94141.50
2023-01-22T19:51:04.990Z,94142.59
2023-01-22T19:53:31.465Z,94132.16
2023-01-22T19:55:57.821Z,94120.09
2023-01-22T19:58:24.330Z,94124.41
2023-01-22T20:00:51.014Z,94109.47
2023-01-22T20:03:17.733Z,94093.84
2023-01-22T20:05:44.645Z,94101.06
2023-01-22T20:08:11.474Z,94095.09
2023-01-22T20:10:37.827Z,94091.88
2023-01-22T20:13:04.740Z,94106.00
2023-01-22T20:15:31.357Z,94087.31
2023-01-22T20:17:57.925Z,94073.47
2023-01-22T20:20:26.008Z,94071.84
2023-01-22T20:22:53.072Z,94051.25
2023-01-22T20:25:21.906Z,94036.28
2023-01-22T20:27:48.517Z,94017.28
2023-01-22T20:30:15.043Z,94014.84
2023-01-22T20:32:41.465Z,93992.00
2023-01-22T20:35:08.091Z,93972.72
2023-01-22T20:37:34.448Z,93969.22
2023-01-22T20:40:00.866Z,93960.50
2023-01-22T20:42:28.276Z,93956.69
2023-01-22T20:44:58.334Z,93942.53
2023-01-22T20:47:25.107Z,93924.16
2023-01-22T20:49:51.527Z,93931.25
2023-01-22T20:52:19.839Z,93923.19
2023-01-22T20:55:00.917Z,93925.78
2023-01-22T20:57:29.052Z,93922.91
2023-01-22T20:59:55.673Z,93916.47
2023-01-22T21:02:22.329Z,93918.25
2023-01-22T21:04:53.000Z,93934.19
2023-01-22T21:07:19.800Z,93938.38
2023-01-22T21:09:46.237Z,93945.47
2023-01-22T21:12:13.615Z,93955.09
2023-01-22T21:14:40.096Z,93954.13
2023-01-22T21:17:06.475Z,93955.78
2023-01-22T21:19:33.045Z,93971.53
2023-01-22T21:22:00.880Z,93987.00
2023-01-22T21:24:27.474Z,93998.72
2023-01-22T21:26:54.073Z,94009.16
2023-01-22T21:29:21.901Z,94009.84
2023-01-22T21:31:49.932Z,94013.38
2023-01-22T21:34:18.177Z,94024.94
2023-01-22T21:36:47.288Z,94032.97
2023-01-22T21:39:15.064Z,94035.41
2023-01-22T21:41:41.947Z,94041.38
2023-01-22T21:44:28.911Z,94052.94
2023-01-22T21:46:55.519Z,94050.34
2023-01-22T21:49:24.257Z,94053.22
2023-01-22T21:51:52.269Z,94049.38
2023-01-22T21:54:24.715Z,94039.72
2023-01-22T21:56:51.257Z,94026.28
2023-01-22T21:59:17.725Z,94029.13
2023-01-22T22:01:45.001Z,94035.41
2023-01-22T22:04:12.085Z,94040.69
2023-01-22T22:06:38.660Z,94032.97
2023-01-22T22:09:11.549Z,94036.50
2023-01-22T22:11:37.897Z,94046.97
2023-01-22T22:14:05.697Z,94043.28
2023-01-22T22:16:33.369Z,94036.22
2023-01-22T22:18:59.890Z,94032.69
2023-01-22T22:21:26.276Z,94029.13
2023-01-22T22:23:52.855Z,94011.75
2023-01-22T22:26:19.266Z,93997.59
2023-01-22T22:28:45.729Z,93997.59
2023-01-22T22:31:13.837Z,93987.59
2023-01-22T22:33:47.661Z,93982.13
2023-01-22T22:36:15.114Z,93980.53
2023-01-22T22:38:41.487Z,93977.31
2023-01-22T22:41:12.247Z,93979.88
2023-01-22T22:43:40.488Z,93984.22
2023-01-22T22:46:10.297Z,93980.81
2023-01-22T22:48:36.705Z,93988.72
2023-01-22T22:51:14.146Z,93987.91
2023-01-22T22:53:40.806Z,93989.66
2023-01-22T22:56:07.651Z,93989.50
2023-01-22T22:58:34.326Z,93995.78
2023-01-22T23:01:07.645Z,93979.88
2023-01-22T23:03:35.031Z,93974.25
2023-01-22T23:06:13.103Z,93971.81
2023-01-22T23:08:40.338Z,93956.06
2023-01-22T23:11:08.509Z,93955.78
2023-01-22T23:13:35.041Z,93955.78
2023-01-22T23:16:05.892Z,93949.78
2023-01-22T23:18:32.981Z,93945.75
2023-01-22T23:21:09.675Z,93954.13
2023-01-22T23:23:36.216Z,93948.69
2023-01-22T23:26:03.115Z,93968.81
2023-01-22T23:28:29.672Z,93975.06
2023-01-22T23:30:56.119Z,93976.03
2023-01-22T23:33:22.707Z,93988.94
2023-01-22T23:35:51.230Z,93992.44
2023-01-22T23:38:17.577Z,93990.41
2023-01-22T23:40:43.931Z,93999.25
2023-01-22T23:43:10.515Z,93997.16
2023-01-22T23:45:40.423Z,94000.84
2023-01-22T23:48:06.782Z,93998.28
2023-01-22T23:50:33.139Z,93995.38
2023-01-22T23:52:59.479Z,94005.03
2023-01-22T23:55:25.827Z,93991.88
2023-01-22T23:57:53.613Z,94009.56
